Time;durP1;ratioP1;P1;durP2;ratioP2;P2;SDS_P1;SDS_P2;PMS_P1;PMS_P2;Temp;Humidity;BMP_temperature;BMP_pressure;BME280_temperature;BME280_humidity;BME280_pressure;Samples;Min_cycle;Max_cycle;Signal;HPM_P1;HPM_P2
2021/11/01 00:02:08;;;;;;;22.23;14.47;;;;;;;13.62;69.80;99402.97;5118102;28;20182;-70
2021/11/01 00:04:34;;;;;;;21.07;13.83;;;;;;;13.44;69.52;99394.72;5116529;28;20278;-71
2021/11/01 00:06:59;;;;;;;19.50;14.20;;;;;;;13.51;70.48;99384.28;5116722;28;20569;-71
2021/11/01 00:09:28;;;;;;;22.70;15.00;;;;;;;13.28;70.42;99368.38;5115801;28;20658;-70
2021/11/01 00:11:53;;;;;;;20.37;14.47;;;;;;;13.52;70.10;99386.84;5097851;28;20209;-70
2021/11/01 00:14:19;;;;;;;21.20;14.90;;;;;;;13.48;70.40;99384.56;5114637;28;20200;-70
2021/11/01 00:16:44;;;;;;;17.23;13.33;;;;;;;13.57;69.90;99384.59;5115990;28;20195;-70
2021/11/01 00:19:09;;;;;;;22.23;14.70;;;;;;;13.33;70.67;99382.22;5116115;28;20166;-70
2021/11/01 00:21:35;;;;;;;18.53;14.00;;;;;;;13.28;70.21;99371.06;5114499;28;20189;-70
2021/11/01 00:24:00;;;;;;;21.17;14.07;;;;;;;13.17;70.57;99363.13;5114542;28;20196;-70
2021/11/01 00:26:25;;;;;;;21.73;14.77;;;;;;;13.45;69.98;99374.97;5114582;28;20536;-71
2021/11/01 00:28:50;;;;;;;20.53;13.73;;;;;;;13.01;70.71;99371.59;5115599;28;20181;-71
2021/11/01 00:31:16;;;;;;;21.90;15.67;;;;;;;13.56;69.92;99384.72;5115285;28;20209;-75
2021/11/01 00:33:41;;;;;;;24.07;15.20;;;;;;;13.24;70.58;99375.00;5116519;28;20173;-74
2021/11/01 00:36:07;;;;;;;21.37;14.43;;;;;;;13.38;70.14;99379.13;5115931;28;20177;-73
2021/11/01 00:38:33;;;;;;;19.47;14.83;;;;;;;13.20;70.85;99370.88;5115224;28;20180;-74
2021/11/01 00:40:58;;;;;;;17.93;14.37;;;;;;;13.33;70.42;99374.19;5113927;28;20162;-75
2021/11/01 00:43:25;;;;;;;18.93;14.37;;;;;;;13.36;70.69;99363.19;5115344;28;20180;-74
2021/11/01 00:45:50;;;;;;;22.77;14.97;;;;;;;13.23;70.87;99353.69;5114112;28;20176;-74
2021/11/01 00:48:16;;;;;;;18.77;12.73;;;;;;;13.03;70.94;99347.38;5096875;28;20169;-74
2021/11/01 00:50:42;;;;;;;21.23;14.70;;;;;;;13.13;71.16;99343.75;5113739;28;20285;-73
2021/11/01 00:53:08;;;;;;;20.60;14.23;;;;;;;12.84;71.68;99338.22;5115229;28;20539;-74
2021/11/01 00:55:49;;;;;;;20.50;14.33;;;;;;;13.11;71.11;99336.84;5113955;28;20169;-74
2021/11/01 00:58:15;;;;;;;20.57;14.13;;;;;;;13.10;71.40;99338.66;5114132;28;20161;-73
2021/11/01 01:00:41;;;;;;;20.97;15.03;;;;;;;13.16;70.92;99339.97;5097351;28;20173;-72
2021/11/01 01:03:06;;;;;;;19.80;14.27;;;;;;;12.92;72.02;99323.31;5113599;28;20196;-72
2021/11/01 01:05:31;;;;;;;20.67;14.10;;;;;;;12.70;71.74;99319.84;5115312;28;20528;-74
2021/11/01 01:07:57;;;;;;;26.87;14.70;;;;;;;12.86;72.25;99323.84;5114741;28;20299;-72
2021/11/01 01:10:22;;;;;;;20.20;14.43;;;;;;;12.73;72.01;99316.88;5113257;28;20273;-72
2021/11/01 01:12:47;;;;;;;19.50;15.60;;;;;;;12.84;72.22;99322.16;5113443;28;20197;-73
2021/11/01 01:15:24;;;;;;;19.83;14.13;;;;;;;12.81;72.41;99319.75;5114496;28;20165;-71
2021/11/01 01:17:50;;;;;;;19.73;14.83;;;;;;;12.98;71.83;99314.75;5113699;28;20156;-71
2021/11/01 01:20:19;;;;;;;17.90;14.47;;;;;;;12.62;72.87;99306.22;5114982;28;20525;-71
2021/11/01 01:22:45;;;;;;;20.70;14.97;;;;;;;12.42;73.26;99278.50;5114351;28;20189;-71
2021/11/01 01:25:24;;;;;;;24.07;13.87;;;;;;;12.72;73.22;99299.13;5113743;28;20219;-73
2021/11/01 01:27:50;;;;;;;22.33;15.23;;;;;;;12.65;73.05;99330.09;5113088;28;20536;-70
2021/11/01 01:30:16;;;;;;;19.70;14.63;;;;;;;12.48;73.31;99310.09;5113121;28;20558;-74
2021/11/01 01:32:43;;;;;;;22.30;15.30;;;;;;;12.73;72.66;99319.56;5113210;28;20201;-76
2021/11/01 01:35:09;;;;;;;22.43;14.83;;;;;;;12.61;72.86;99309.88;5113731;28;20176;-75
2021/11/01 01:37:35;;;;;;;19.87;14.90;;;;;;;12.48;73.37;99318.13;5114435;28;20178;-75
2021/11/01 01:40:00;;;;;;;21.07;15.00;;;;;;;12.35;73.25;99313.94;5113080;28;20681;-75
2021/11/01 01:42:25;;;;;;;20.00;14.93;;;;;;;12.80;72.52;99315.38;5112903;28;20246;-75
2021/11/01 01:44:51;;;;;;;20.27;15.13;;;;;;;12.39;73.17;99285.94;5112959;28;20170;-75
2021/11/01 01:47:16;;;;;;;21.27;15.10;;;;;;;12.46;73.46;99295.16;5112850;28;20172;-75
2021/11/01 01:49:42;;;;;;;21.87;15.00;;;;;;;12.38;73.52;99297.63;5113050;28;20169;-72
2021/11/01 01:52:08;;;;;;;19.10;15.20;;;;;;;12.52;73.60;99306.16;5113853;28;20224;-72
2021/11/01 01:54:34;;;;;;;20.70;14.43;;;;;;;12.41;73.48;99286.66;5112800;28;20177;-73
2021/11/01 01:56:59;;;;;;;24.63;16.23;;;;;;;12.38;73.47;99284.25;5112759;28;20201;-71
2021/11/01 01:59:26;;;;;;;23.67;15.47;;;;;;;12.46;74.08;99279.09;5112647;28;20181;-74
2021/11/01 02:01:51;;;;;;;22.33;15.00;;;;;;;12.26;74.16;99267.38;5113869;28;20671;-73
2021/11/01 02:04:20;;;;;;;23.73;16.03;;;;;;;12.29;74.33;99266.31;5112658;28;20177;-73
2021/11/01 02:07:05;;;;;;;25.67;16.77;;;;;;;12.51;73.84;99276.88;5112808;28;20177;-73
2021/11/01 02:09:37;;;;;;;21.20;15.53;;;;;;;12.55;73.84;99277.44;5115586;28;20589;-73
2021/11/01 02:12:05;;;;;;;18.93;14.90;;;;;;;12.32;74.18;99266.06;5113625;28;20220;-73
2021/11/01 02:14:38;;;;;;;24.47;15.70;;;;;;;12.06;75.33;99271.75;5114438;28;20528;-73
2021/11/01 02:17:03;;;;;;;21.67;15.37;;;;;;;12.23;74.52;99264.13;5112958;28;20295;-73
2021/11/01 02:19:30;;;;;;;21.10;16.03;;;;;;;12.36;74.53;99280.84;5113170;28;20185;-74
2021/11/01 02:22:08;;;;;;;22.80;15.23;;;;;;;12.32;74.49;99282.09;5114178;28;20189;-73
2021/11/01 02:24:48;;;;;;;23.67;15.27;;;;;;;12.29;74.07;99271.66;5112872;28;20208;-72
2021/11/01 02:27:14;;;;;;;21.30;16.43;;;;;;;12.45;74.11;99264.00;5112669;28;20292;-72
2021/11/01 02:29:43;;;;;;;21.70;16.73;;;;;;;12.39;74.52;99269.91;5112610;28;20177;-72
2021/11/01 02:32:09;;;;;;;23.97;16.10;;;;;;;12.26;74.92;99264.72;5113352;28;20209;-72
2021/11/01 02:34:35;;;;;;;23.00;15.90;;;;;;;12.48;73.89;99266.44;5112216;28;20176;-73
2021/11/01 02:37:01;;;;;;;23.30;16.23;;;;;;;12.13;74.61;99256.03;5112599;28;20532;-72
2021/11/01 02:39:26;;;;;;;24.87;15.87;;;;;;;12.20;75.04;99249.19;5095178;28;20173;-72
2021/11/01 02:41:52;;;;;;;22.17;16.70;;;;;;;12.16;75.30;99239.72;5112164;28;20196;-72
2021/11/01 02:44:17;;;;;;;23.27;16.57;;;;;;;12.28;74.82;99236.03;5112215;28;20181;-72
2021/11/01 02:46:45;;;;;;;23.30;16.37;;;;;;;11.90;75.62;99225.91;5113505;28;20177;-73
2021/11/01 02:49:10;;;;;;;21.73;16.23;;;;;;;12.15;74.64;99220.16;5113340;28;20172;-71
2021/11/01 02:51:35;;;;;;;21.37;15.97;;;;;;;12.07;75.96;99240.50;5112146;28;20233;-73
2021/11/01 02:54:02;;;;;;;25.83;15.80;;;;;;;12.26;75.05;99240.63;5095021;28;20177;-72
2021/11/01 02:56:28;;;;;;;23.57;16.60;;;;;;;12.36;74.73;99246.94;5113958;28;20165;-72
2021/11/01 02:58:54;;;;;;;19.67;15.27;;;;;;;12.14;74.96;99241.69;5112190;28;20196;-73
2021/11/01 03:01:20;;;;;;;25.43;16.23;;;;;;;12.21;74.47;99238.34;5111975;28;20538;-72
2021/11/01 03:03:46;;;;;;;23.80;16.77;;;;;;;12.04;75.22;99241.63;5112001;28;20173;-72
2021/11/01 03:06:15;;;;;;;20.30;15.07;;;;;;;12.17;75.46;99244.94;5113102;28;20180;-73
2021/11/01 03:08:40;;;;;;;24.30;16.67;;;;;;;12.19;74.76;99236.78;5111733;28;20182;-71
2021/11/01 03:11:07;;;;;;;22.47;15.50;;;;;;;12.02;75.55;99232.03;5112802;28;20209;-71
2021/11/01 03:13:34;;;;;;;23.70;17.13;;;;;;;12.08;75.20;99243.06;5111632;28;20549;-71
2021/11/01 03:16:03;;;;;;;24.03;16.70;;;;;;;12.17;75.56;99236.94;5094801;28;20177;-74
2021/11/01 03:18:52;;;;;;;29.17;17.63;;;;;;;12.10;75.87;99246.44;5114650;28;20218;-72
2021/11/01 03:21:18;;;;;;;24.10;17.27;;;;;;;12.20;75.56;99241.16;5120014;28;20190;-72
2021/11/01 03:23:47;;;;;;;22.97;16.87;;;;;;;11.91;75.94;99232.94;5099803;28;20712;-73
2021/11/01 03:26:16;;;;;;;25.83;16.37;;;;;;;12.05;75.62;99248.66;5116614;28;20174;-73
2021/11/01 03:28:43;;;;;;;27.27;17.97;;;;;;;11.83;76.33;99241.56;5116137;28;20184;-73
2021/11/01 03:31:10;;;;;;;22.60;17.17;;;;;;;12.05;75.68;99243.31;5116464;28;20225;-73
2021/11/01 03:33:40;;;;;;;25.03;17.80;;;;;;;12.02;75.29;99242.72;5115661;28;20178;-73
2021/11/01 03:36:07;;;;;;;27.23;17.13;;;;;;;11.51;77.06;99235.31;5115770;28;20227;-71
2021/11/01 03:38:33;;;;;;;25.80;17.47;;;;;;;11.97;75.88;99240.44;5115411;28;20574;-73
2021/11/01 03:41:00;;;;;;;26.00;17.17;;;;;;;11.77;76.61;99231.38;5115246;28;20552;-72
2021/11/01 03:43:33;;;;;;;22.53;17.17;;;;;;;12.04;75.66;99230.94;5115459;28;20177;-71
2021/11/01 03:46:00;;;;;;;22.80;18.00;;;;;;;11.64;77.15;99228.03;5099374;28;20215;-72
2021/11/01 03:48:27;;;;;;;25.97;17.17;;;;;;;12.07;76.00;99244.03;5115389;28;20181;-72
2021/11/01 03:51:04;;;;;;;23.27;17.43;;;;;;;11.57;77.35;99221.50;5115452;28;20273;-72
2021/11/01 03:53:29;;;;;;;23.03;16.80;;;;;;;11.71;76.84;99242.56;5115318;28;20165;-72
2021/11/01 03:55:54;;;;;;;26.30;17.70;;;;;;;11.48;77.70;99223.06;5116871;28;20174;-72
2021/11/01 03:58:20;;;;;;;24.23;17.37;;;;;;;11.83;77.26;99243.41;5117096;28;20184;-74
2021/11/01 04:00:45;;;;;;;25.63;17.10;;;;;;;11.37;77.99;99216.91;5116761;28;20514;-72
2021/11/01 04:03:10;;;;;;;22.90;17.13;;;;;;;11.86;76.85;99241.31;5114848;28;20216;-73
2021/11/01 04:05:36;;;;;;;24.10;17.73;;;;;;;11.52;77.42;99223.66;5115385;28;20177;-73
2021/11/01 04:08:01;;;;;;;23.27;17.57;;;;;;;11.48;77.29;99219.56;5116349;28;20197;-73
2021/11/01 04:10:27;;;;;;;25.60;18.37;;;;;;;11.67;77.14;99216.22;5116733;28;20208;-72
2021/11/01 04:12:52;;;;;;;22.83;17.70;;;;;;;11.51;77.89;99222.81;5097902;28;20201;-73
2021/11/01 04:15:21;;;;;;;28.57;18.57;;;;;;;11.78;76.64;99235.78;5115305;28;20178;-73
2021/11/01 04:18:02;;;;;;;22.93;17.63;;;;;;;11.52;77.53;99221.88;5115032;28;20181;-73
2021/11/01 04:20:37;;;;;;;23.30;17.97;;;;;;;11.63;77.62;99233.50;5115106;28;20241;-75
2021/11/01 04:23:05;;;;;;;22.73;18.10;;;;;;;11.68;77.14;99233.97;5114535;28;20196;-73
2021/11/01 04:25:32;;;;;;;21.13;16.63;;;;;;;11.39;78.20;99217.63;5097912;28;20552;-73
2021/11/01 04:27:59;;;;;;;24.87;17.63;;;;;;;11.27;78.64;99235.53;5115622;28;20174;-73
2021/11/01 04:30:26;;;;;;;26.27;18.70;;;;;;;11.80;77.16;99251.69;5115881;28;20197;-74
2021/11/01 04:32:55;;;;;;;30.60;19.10;;;;;;;11.83;76.98;99248.75;5115866;28;20197;-73
2021/11/01 04:35:27;;;;;;;24.27;16.87;;;;;;;11.45;78.24;99239.34;5116032;28;20174;-74
2021/11/01 04:38:40;;;;;;;24.33;17.70;;;;;;;11.99;75.71;99253.69;5115748;27;20252;-73
2021/11/01 04:40:58;;;;;;;23.93;17.07;;;;;;;11.13;78.35;99233.94;5109677;28;20186;-74
2021/11/01 04:52:59;;;;;;;23.53;18.17;;;;;;;11.29;78.19;99214.88;5114845;28;20160;-73
2021/11/01 04:54:29;;;;;;;24.37;18.20;;;;;;;11.84;77.17;99237.06;5114613;28;20242;-73
2021/11/01 04:56:55;;;;;;;26.43;17.73;;;;;;;11.76;76.35;99247.53;5114254;28;20176;-73
2021/11/01 04:59:21;;;;;;;27.27;18.63;;;;;;;11.78;77.33;99256.31;5114212;28;20181;-72
2021/11/01 05:01:50;;;;;;;24.43;18.43;;;;;;;11.79;76.61;99241.97;5115452;28;20631;-71
2021/11/01 05:04:21;;;;;;;25.90;18.80;;;;;;;11.35;78.45;99237.56;5097211;28;20255;-73
2021/11/01 05:07:19;;;;;;;24.97;17.83;;;;;;;11.34;77.94;99219.84;5097286;28;20165;-71
2021/11/01 05:09:55;;;;;;;27.10;18.03;;;;;;;11.51;77.75;99238.84;5110114;28;20216;-71
2021/11/01 05:12:28;;;;;;;26.50;18.40;;;;;;;11.47;77.76;99245.41;5098892;28;20192;-72
2021/11/01 05:14:58;;;;;;;25.23;18.63;;;;;;;11.25;78.27;99258.84;5113484;28;20161;-72
2021/11/01 05:17:33;;;;;;;26.13;18.60;;;;;;;11.68;77.58;99271.38;5114231;28;20160;-72
2021/11/01 05:20:21;;;;;;;24.67;18.20;;;;;;;11.79;76.48;99258.84;5113867;28;20168;-74
2021/11/01 05:22:52;;;;;;;23.73;18.00;;;;;;;11.72;76.66;99257.63;5114070;28;20595;-73
2021/11/01 05:25:33;;;;;;;29.33;19.37;;;;;;;11.57;77.50;99254.41;5114040;28;20177;-72
2021/11/01 05:28:06;;;;;;;25.23;18.27;;;;;;;11.57;77.92;99254.41;5115076;28;20153;-74
2021/11/01 05:35:37;;;;;;;25.97;18.47;;;;;;;11.57;77.49;99261.56;5117465;28;20217;-73
2021/11/01 05:38:04;;;;;;;27.70;18.20;;;;;;;11.62;78.04;99258.53;5113650;28;20169;-73
2021/11/01 05:40:29;;;;;;;24.93;18.43;;;;;;;11.64;77.90;99253.91;5113141;28;20350;-73
2021/11/01 05:42:54;;;;;;;24.67;18.63;;;;;;;11.40;78.82;99249.56;5114692;28;20204;-73
2021/11/01 05:45:20;;;;;;;25.30;18.60;;;;;;;12.05;76.67;99299.47;5113594;28;20263;-74
2021/11/01 05:47:51;;;;;;;25.20;19.20;;;;;;;11.86;76.59;99291.25;5113424;28;20176;-72
2021/11/01 05:50:16;;;;;;;24.87;18.43;;;;;;;12.19;75.82;99296.47;5113606;28;20185;-73
2021/11/01 05:52:43;;;;;;;26.13;19.10;;;;;;;11.69;77.14;99294.44;5101802;28;20277;-73
2021/11/01 05:55:26;;;;;;;23.90;17.43;;;;;;;11.76;76.60;99290.28;5119401;28;20198;-74
2021/11/01 06:03:20;;;;;;;28.67;20.03;;;;;;;11.66;76.77;99268.84;5113417;28;20188;-72
2021/11/01 06:13:29;;;;;;;25.60;19.03;;;;;;;12.39;75.52;99305.53;5114828;28;20193;-73
2021/11/01 06:15:56;;;;;;;29.07;18.80;;;;;;;12.28;75.13;99289.53;5125658;28;20163;-72
2021/11/01 06:18:26;;;;;;;26.60;18.97;;;;;;;12.01;76.20;99287.34;5125144;28;20196;-73
2021/11/01 06:20:53;;;;;;;26.23;19.90;;;;;;;12.36;75.02;99305.78;5113424;28;20153;-72
2021/11/01 06:23:19;;;;;;;26.87;20.13;;;;;;;12.49;74.69;99317.13;5115287;28;20203;-72
2021/11/01 06:25:45;;;;;;;25.60;18.00;;;;;;;12.42;74.88;99310.63;5114518;28;20172;-73
2021/11/01 06:28:13;;;;;;;24.90;18.37;;;;;;;12.46;74.68;99324.56;5112115;28;20173;-69
2021/11/01 06:30:45;;;;;;;27.60;20.33;;;;;;;12.61;74.09;99336.66;5112826;28;20193;-69
2021/11/01 06:33:46;;;;;;;26.90;18.87;;;;;;;12.75;73.25;99348.88;5113248;28;20193;-69
2021/11/01 06:39:17;;;;;;;26.50;18.57;;;;;;;12.87;73.50;99363.88;5113094;28;20157;-70
2021/11/01 06:41:49;;;;;;;24.47;18.93;;;;;;;13.21;72.67;99377.09;5111934;28;20208;-68
2021/11/01 06:44:28;;;;;;;26.73;18.73;;;;;;;12.88;72.82;99367.41;5112380;28;20176;-69
2021/11/01 07:16:45;;;;;;;29.20;19.10;;;;;;;13.15;73.36;99405.22;5124960;28;20533;-77
2021/11/01 07:25:02;;;;;;;27.87;19.07;;;;;;;12.67;75.05;99403.06;5127838;28;20240;-76
2021/11/01 07:38:54;;;;;;;26.37;18.73;;;;;;;13.49;72.77;99450.59;5118018;28;20244;-76
2021/11/01 08:25:22;;;;;;;23.67;17.60;;;;;;;14.06;71.97;99458.00;5116342;28;20236;-77
2021/11/01 08:51:25;;;;;;;25.10;17.70;;;;;;;13.85;72.52;99454.56;5114716;28;20193;-76
2021/11/01 09:21:17;;;;;;;23.33;17.03;;;;;;;15.41;69.63;99508.34;5115316;28;20646;-75
2021/11/01 09:26:40;;;;;;;23.40;15.90;;;;;;;15.42;68.73;99507.38;5086359;28;20276;-76
2021/11/01 09:29:17;;;;;;;22.70;14.53;;;;;;;14.80;70.80;99504.13;5114175;28;20153;-76
2021/11/01 09:37:26;;;;;;;20.97;13.93;;;;;;;15.46;69.06;99517.69;5115636;28;20164;-75
2021/11/01 09:42:45;;;;;;;22.97;13.87;;;;;;;15.79;68.31;99539.75;5113979;28;20187;-76
2021/11/01 09:45:11;;;;;;;20.00;13.87;;;;;;;15.76;68.71;99548.09;5114230;28;20172;-75
2021/11/01 09:47:38;;;;;;;21.10;11.30;;;;;;;15.40;69.01;99530.84;5115201;28;20172;-75
2021/11/01 09:50:04;;;;;;;19.27;11.63;;;;;;;15.67;68.61;99540.91;5097617;28;20180;-76
2021/11/01 09:52:30;;;;;;;19.00;11.13;;;;;;;15.55;68.66;99529.41;5096020;28;20639;-76
2021/11/01 09:54:57;;;;;;;13.33;9.20;;;;;;;15.23;69.39;99538.63;5096931;28;20188;-75
2021/11/01 09:57:33;;;;;;;19.57;9.50;;;;;;;15.38;69.72;99543.59;5115020;28;20199;-77
2021/11/01 09:59:58;;;;;;;15.00;8.50;;;;;;;15.41;69.27;99540.63;5098486;28;20161;-75
2021/11/01 10:02:25;;;;;;;16.03;8.03;;;;;;;15.31;69.22;99551.38;5112874;28;20193;-75
2021/11/01 10:04:53;;;;;;;21.83;8.37;;;;;;;15.32;69.55;99553.94;5116046;28;20181;-77
2021/11/01 10:07:26;;;;;;;15.77;7.70;;;;;;;15.42;69.75;99543.16;5114331;28;20301;-76
2021/11/01 10:09:54;;;;;;;16.03;7.20;;;;;;;15.59;68.53;99546.97;5114473;28;20256;-76
2021/11/01 10:12:26;;;;;;;17.90;7.87;;;;;;;15.52;69.24;99538.63;5095779;28;20580;-76
2021/11/01 10:17:34;;;;;;;15.97;7.77;;;;;;;15.65;68.13;99532.97;5113640;28;20243;-75
2021/11/01 10:18:04;;;;;;;14.63;6.83;;;;;;;15.78;67.93;99544.28;5115196;28;20161;-76
2021/11/01 10:20:32;;;;;;;17.33;7.20;;;;;;;15.98;67.63;99553.13;5122401;28;20162;-76
2021/11/01 10:22:57;;;;;;;13.23;7.03;;;;;;;15.79;67.94;99540.59;5121022;28;20196;-76
2021/11/01 10:25:23;;;;;;;14.77;6.60;;;;;;;15.94;67.65;99539.13;5120658;28;20173;-76
2021/11/01 10:27:56;;;;;;;17.80;7.40;;;;;;;15.83;67.56;99530.38;5120663;28;20169;-76
2021/11/01 10:30:32;;;;;;;16.37;6.90;;;;;;;15.76;68.51;99535.50;5119813;28;20632;-75
2021/11/01 10:33:02;;;;;;;13.97;6.87;;;;;;;15.69;68.13;99523.63;5117655;28;20201;-75
2021/11/01 10:35:30;;;;;;;12.47;6.10;;;;;;;15.88;68.11;99534.31;5117921;28;20548;-75
2021/11/01 10:38:11;;;;;;;12.40;6.23;;;;;;;15.63;68.58;99530.44;5095130;28;20173;-75
2021/11/01 10:40:45;;;;;;;10.90;5.70;;;;;;;15.76;68.24;99530.13;5113390;28;20346;-76
2021/11/01 10:43:29;;;;;;;14.53;6.60;;;;;;;15.54;67.90;99512.44;5113667;28;20189;-76
2021/11/01 10:57:24;;;;;;;9.57;4.90;;;;;;;15.71;66.54;99500.13;5112804;28;20154;-76
2021/11/01 11:11:06;;;;;;;9.73;4.47;;;;;;;16.09;66.68;99522.50;5113660;28;20625;-75
2021/11/01 11:13:38;;;;;;;10.47;4.47;;;;;;;15.74;66.92;99509.75;5113275;28;20162;-76
2021/11/01 11:16:05;;;;;;;5.47;3.50;;;;;;;15.57;66.61;99505.91;5112225;28;20157;-76
2021/11/01 11:21:48;;;;;;;5.63;3.87;;;;;;;16.04;66.25;99522.09;5090201;28;20210;-75
2021/11/01 11:24:43;;;;;;;9.77;4.47;;;;;;;15.48;67.99;99514.84;5114758;28;20157;-74
2021/11/01 11:30:42;;;;;;;10.80;4.53;;;;;;;15.69;67.85;99526.31;5112517;28;20164;-74
2021/11/01 11:47:46;;;;;;;9.70;4.97;;;;;;;15.41;69.37;99544.16;5116236;28;20529;-76
2021/11/01 11:50:18;;;;;;;8.47;5.40;;;;;;;15.45;68.88;99531.28;5099015;28;20249;-74
2021/11/01 11:52:44;;;;;;;11.37;4.40;;;;;;;15.36;69.11;99537.50;5116008;28;20198;-75
2021/11/01 11:55:19;;;;;;;10.37;4.60;;;;;;;15.65;68.26;99546.44;5117522;28;20652;-76
2021/11/01 11:58:04;;;;;;;6.70;4.40;;;;;;;15.26;69.32;99546.44;5119719;28;20220;-76
2021/11/01 12:00:32;;;;;;;7.43;4.50;;;;;;;15.52;68.70;99544.00;5118139;28;20184;-76
2021/11/01 12:03:09;;;;;;;12.13;5.60;;;;;;;15.58;68.52;99553.34;5117220;28;20235;-76
2021/11/01 12:05:39;;;;;;;7.67;4.53;;;;;;;16.11;67.05;99560.88;5116008;28;20173;-76
2021/11/01 12:08:21;;;;;;;8.10;4.50;;;;;;;16.49;65.61;99560.72;5117233;28;20162;-75
2021/11/01 12:11:16;;;;;;;9.17;4.17;;;;;;;15.58;66.42;99518.41;5116399;28;20549;-76
2021/11/01 12:19:04;;;;;;;7.47;4.13;;;;;;;15.06;67.86;99515.16;5116585;28;20157;-76
2021/11/01 12:21:31;;;;;;;8.27;3.70;;;;;;;15.69;66.95;99545.16;5116309;28;20209;-76
2021/11/01 12:23:56;;;;;;;6.43;3.80;;;;;;;15.21;68.91;99535.25;5116310;28;20197;-75
2021/11/01 12:26:23;;;;;;;6.33;4.13;;;;;;;15.42;68.74;99548.53;5117171;28;20262;-76
2021/11/01 12:29:19;;;;;;;5.80;4.17;;;;;;;15.71;66.93;99545.84;5116975;27;20176;-77
2021/11/01 12:31:58;;;;;;;6.63;3.57;;;;;;;15.12;68.50;99529.88;5116452;28;20614;-76
2021/11/01 12:34:24;;;;;;;9.83;4.00;;;;;;;15.36;67.30;99527.59;5116590;27;20249;-75
2021/11/01 12:37:01;;;;;;;8.67;4.43;;;;;;;14.78;68.01;99516.84;5116179;28;20234;-76
2021/11/01 12:47:50;;;;;;;5.67;3.03;;;;;;;14.92;67.57;99519.13;5115875;28;20168;-76
2021/11/01 12:58:32;;;;;;;6.13;3.20;;;;;;;15.50;65.79;99516.41;5116451;28;20234;-76
2021/11/01 13:01:12;;;;;;;5.87;3.07;;;;;;;15.78;65.12;99514.69;5116838;28;20170;-76
2021/11/01 13:03:38;;;;;;;4.87;3.23;;;;;;;15.75;65.20;99517.66;5114799;28;20150;-76
2021/11/01 13:06:09;;;;;;;4.73;2.90;;;;;;;15.35;64.74;99484.75;5115235;28;20188;-74
2021/11/01 13:08:48;;;;;;;5.57;3.10;;;;;;;15.37;65.85;99496.19;5116980;28;20150;-76
2021/11/01 13:11:27;;;;;;;5.53;2.83;;;;;;;15.57;64.68;99508.59;5116723;28;20229;-76
2021/11/01 13:19:18;;;;;;;6.13;2.60;;;;;;;15.57;65.88;99508.59;5115859;28;20165;-75
2021/11/01 13:21:59;;;;;;;6.30;3.03;;;;;;;15.56;65.45;99518.50;5115450;28;20185;-76
2021/11/01 13:24:47;;;;;;;7.13;3.33;;;;;;;15.46;66.07;99523.06;5115205;27;20173;-75
2021/11/01 13:27:32;;;;;;;5.47;2.70;;;;;;;15.55;65.40;99526.72;5115713;28;20158;-75
2021/11/01 13:37:57;;;;;;;4.17;2.57;;;;;;;14.72;66.16;99506.66;5115774;28;20187;-77
2021/11/01 13:40:22;;;;;;;5.47;2.87;;;;;;;15.11;65.39;99510.22;5116000;28;20169;-76
2021/11/01 13:42:58;;;;;;;5.67;2.57;;;;;;;14.92;65.90;99516.44;5097358;28;20616;-76
2021/11/01 13:45:24;;;;;;;7.50;2.57;;;;;;;15.10;65.47;99516.56;5115090;28;20173;-75
2021/11/01 13:47:55;;;;;;;5.07;2.50;;;;;;;14.86;66.02;99514.28;5114882;28;20261;-76
2021/11/01 13:50:25;;;;;;;5.87;2.40;;;;;;;15.12;66.38;99522.66;5098956;28;20177;-76
2021/11/01 13:53:06;;;;;;;6.00;2.70;;;;;;;15.31;65.14;99532.56;5114589;28;20193;-76
2021/11/01 14:00:51;;;;;;;9.33;3.17;;;;;;;15.14;65.98;99518.00;5120240;28;20176;-76
2021/11/01 14:16:52;;;;;;;5.20;2.30;;;;;;;14.47;68.17;99469.59;5114190;28;20157;-76
2021/11/01 14:19:33;;;;;;;5.43;2.57;;;;;;;14.44;69.05;99476.09;5115480;28;20624;-75
2021/11/01 15:00:16;;;;;;;5.63;2.80;;;;;;;14.50;70.53;99525.72;5124873;28;20594;-75
2021/11/01 15:08:10;;;;;;;8.43;3.00;;;;;;;14.31;71.39;99518.41;5116034;28;20176;-76
2021/11/01 15:15:57;;;;;;;6.67;3.27;;;;;;;14.05;72.94;99521.56;5118540;28;20176;-76
2021/11/01 15:21:09;;;;;;;7.73;3.37;;;;;;;13.88;73.59;99524.88;5119212;28;20245;-77
2021/11/01 15:23:53;;;;;;;11.30;3.30;;;;;;;14.02;73.66;99535.25;5117909;28;20150;-76
2021/11/01 15:34:32;;;;;;;9.10;3.30;;;;;;;14.09;73.97;99546.28;5117999;28;20176;-74
2021/11/01 15:37:21;;;;;;;8.90;3.20;;;;;;;13.78;75.07;99550.81;5118340;28;20185;-76
2021/11/01 16:17:58;;;;;;;12.57;4.60;;;;;;;13.60;76.36;99566.63;5116026;28;20159;-72
2021/11/01 16:20:23;;;;;;;10.07;4.83;;;;;;;13.61;76.20;99556.75;5116460;28;20165;-72
2021/11/01 16:22:50;;;;;;;10.47;4.43;;;;;;;13.98;76.20;99579.41;5117098;28;20189;-73
2021/11/01 16:25:16;;;;;;;15.07;4.97;;;;;;;13.83;76.67;99561.97;5117771;28;20181;-73
2021/11/01 16:27:44;;;;;;;15.83;5.43;;;;;;;13.64;76.93;99556.47;5115979;28;20352;-72
2021/11/01 16:30:16;;;;;;;8.43;4.70;;;;;;;13.37;78.11;99571.25;5099418;28;20186;-73
2021/11/01 16:32:44;;;;;;;9.90;4.67;;;;;;;13.74;77.51;99579.69;5116219;28;20679;-71
2021/11/01 16:35:11;;;;;;;11.53;5.07;;;;;;;13.62;78.22;99571.84;5115897;28;20177;-74
2021/11/01 16:38:06;;;;;;;10.57;4.23;;;;;;;13.52;78.85;99578.97;5116845;28;20183;-71
2021/11/01 16:40:24;;;;;;;11.67;4.67;;;;;;;13.68;78.19;99580.22;5116256;28;20212;-71
2021/11/01 16:42:49;;;;;;;10.03;4.60;;;;;;;13.77;77.98;99592.00;5116769;28;20700;-70
2021/11/01 16:45:32;;;;;;;11.97;5.00;;;;;;;13.37;79.03;99589.16;5117797;28;20177;-72
2021/11/01 16:48:00;;;;;;;13.47;5.07;;;;;;;13.43;78.39;99589.50;5115322;28;20161;-73
2021/11/01 16:50:26;;;;;;;10.70;5.20;;;;;;;13.48;79.15;99599.00;5116034;28;20192;-71
2021/11/01 16:52:52;;;;;;;9.40;5.00;;;;;;;13.52;79.01;99601.28;5114822;28;20198;-71
2021/11/01 16:55:29;;;;;;;13.97;5.50;;;;;;;13.51;79.96;99604.09;5114416;28;20671;-71
2021/11/01 16:57:57;;;;;;;9.67;5.20;;;;;;;13.81;78.84;99606.84;5115982;28;20176;-72
2021/11/01 17:00:29;;;;;;;14.27;5.60;;;;;;;13.19;80.84;99590.69;5118076;28;20187;-72
2021/11/01 17:06:04;;;;;;;10.07;5.47;;;;;;;13.59;80.44;99612.31;5115082;28;20173;-71
2021/11/01 17:24:42;;;;;;;12.67;5.97;;;;;;;13.34;81.26;99598.31;5116997;28;20601;-71
2021/11/01 17:27:17;;;;;;;9.83;5.97;;;;;;;13.48;81.38;99593.63;5114971;28;20540;-75
2021/11/01 17:35:37;;;;;;;9.93;5.67;;;;;;;13.66;80.38;99613.50;5116133;28;20199;-73
2021/11/01 18:36:39;;;;;;;9.93;5.73;;;;;;;13.20;83.85;99597.75;5114179;28;20169;-70
2021/11/01 18:40:57;;;;;;;10.90;6.47;;;;;;;13.14;84.25;99602.63;5113651;28;20176;-70
2021/11/01 18:46:11;;;;;;;12.27;6.13;;;;;;;13.10;84.87;99617.25;5114449;28;20178;-72
2021/11/01 18:51:35;;;;;;;15.80;5.97;;;;;;;13.34;84.81;99635.81;5118066;28;20207;-71
2021/11/01 18:54:24;;;;;;;13.53;5.50;;;;;;;13.25;83.68;99628.53;5116771;28;20244;-71
2021/11/01 18:56:52;;;;;;;13.67;5.83;;;;;;;13.15;85.47;99631.13;5118780;28;20215;-73
2021/11/01 18:59:18;;;;;;;15.63;6.23;;;;;;;13.21;84.82;99637.81;5119454;28;20181;-72
2021/11/01 19:01:49;;;;;;;10.83;6.40;;;;;;;13.18;84.85;99650.63;5117279;28;20185;-70
2021/11/01 19:04:21;;;;;;;13.80;6.07;;;;;;;13.24;84.33;99637.56;5119265;28;20257;-71
2021/11/01 19:06:51;;;;;;;12.87;5.70;;;;;;;12.77;86.77;99647.63;5119448;28;20577;-69
2021/11/01 19:09:42;;;;;;;9.83;6.00;;;;;;;12.88;86.53;99649.44;5118286;28;20633;-71
2021/11/01 20:10:42;;;;;;;9.60;5.93;;;;;;;13.09;85.13;99673.63;5115581;28;20160;-74
2021/11/01 21:27:13;;;;;;;11.43;6.60;;;;;;;13.14;86.12;99663.38;5121789;28;20206;-74
2021/11/01 21:29:38;;;;;;;9.37;6.23;;;;;;;13.01;85.88;99658.19;5114938;28;20170;-77
2021/11/01 21:32:05;;;;;;;11.87;6.37;;;;;;;13.20;85.44;99659.38;5115380;28;20201;-77
2021/11/01 21:35:13;;;;;;;12.83;7.37;;;;;;;13.26;85.03;99659.72;5116629;28;20181;-76
2021/11/01 21:37:18;;;;;;;11.53;6.23;;;;;;;12.77;86.62;99652.13;5108840;28;20549;-75
2021/11/01 21:39:44;;;;;;;12.43;6.77;;;;;;;12.79;86.77;99651.03;5115158;28;20184;-76